sensor_id;sensor_type;location;lat;lon;timestamp;pressure;altitude;pressure_sealevel;temperature;humidity
52032;BME280;38044;45.148;39.604;2023-03-25T00:01:54;101304.66;;;7.66;82.40
52032;BME280;38044;45.148;39.604;2023-03-25T00:04:20;101329.91;;;7.76;82.73
52032;BME280;38044;45.148;39.604;2023-03-25T00:06:46;101318.44;;;7.80;82.90
52032;BME280;38044;45.148;39.604;2023-03-25T00:09:12;101312.13;;;7.92;82.57
52032;BME280;38044;45.148;39.604;2023-03-25T00:11:38;101273.44;;;7.77;82.23
52032;BME280;38044;45.148;39.604;2023-03-25T00:14:04;101174.59;;;7.33;81.95
52032;BME280;38044;45.148;39.604;2023-03-25T00:16:29;101135.16;;;7.18;81.52
52032;BME280;38044;45.148;39.604;2023-03-25T00:18:55;101190.38;;;7.62;80.86
52032;BME280;38044;45.148;39.604;2023-03-25T00:21:24;101320.63;;;8.48;80.83
52032;BME280;38044;45.148;39.604;2023-03-25T00:23:50;101326.19;;;8.41;80.25
52032;BME280;38044;45.148;39.604;2023-03-25T00:26:15;101160.72;;;7.36;80.36
52032;BME280;38044;45.148;39.604;2023-03-25T00:28:41;101301.06;;;8.15;80.93
52032;BME280;38044;45.148;39.604;2023-03-25T00:31:11;101244.94;;;7.93;81.10
52032;BME280;38044;45.148;39.604;2023-03-25T00:33:37;101121.81;;;7.18;81.00
52032;BME280;38044;45.148;39.604;2023-03-25T00:36:06;101240.41;;;7.94;80.68
52032;BME280;38044;45.148;39.604;2023-03-25T00:38:34;101262.94;;;8.03;81.37
52032;BME280;38044;45.148;39.604;2023-03-25T00:41:09;101132.28;;;7.25;81.57
52032;BME280;38044;45.148;39.604;2023-03-25T00:43:35;101179.06;;;7.55;81.52
52032;BME280;38044;45.148;39.604;2023-03-25T00:46:01;101293.19;;;8.35;81.44
52032;BME280;38044;45.148;39.604;2023-03-25T00:48:27;101298.00;;;8.33;81.77
52032;BME280;38044;45.148;39.604;2023-03-25T00:50:54;101266.31;;;8.25;82.20
52032;BME280;38044;45.148;39.604;2023-03-25T00:53:20;101213.63;;;7.94;81.93
52032;BME280;38044;45.148;39.604;2023-03-25T00:55:46;101294.16;;;8.56;81.53
52032;BME280;38044;45.148;39.604;2023-03-25T00:58:11;101301.88;;;8.48;80.78
52032;BME280;38044;45.148;39.604;2023-03-25T01:00:37;101227.56;;;7.96;81.09
52032;BME280;38044;45.148;39.604;2023-03-25T01:03:03;101144.69;;;7.36;80.94
52032;BME280;38044;45.148;39.604;2023-03-25T01:05:29;101271.06;;;8.18;81.39
52032;BME280;38044;45.148;39.604;2023-03-25T01:07:55;101175.34;;;7.56;81.74
52032;BME280;38044;45.148;39.604;2023-03-25T01:10:21;101264.06;;;8.12;81.57
52032;BME280;38044;45.148;39.604;2023-03-25T01:12:47;101270.00;;;8.14;81.71
52032;BME280;38044;45.148;39.604;2023-03-25T01:15:13;101171.06;;;7.60;81.98
52032;BME280;38044;45.148;39.604;2023-03-25T01:17:39;101232.41;;;7.99;82.24
52032;BME280;38044;45.148;39.604;2023-03-25T01:20:06;101290.03;;;8.44;82.25
52032;BME280;38044;45.148;39.604;2023-03-25T01:22:34;101256.16;;;8.27;81.73
52032;BME280;38044;45.148;39.604;2023-03-25T01:25:00;101265.31;;;8.37;81.85
52032;BME280;38044;45.148;39.604;2023-03-25T01:27:26;101156.75;;;7.76;81.98
52032;BME280;38044;45.148;39.604;2023-03-25T01:29:52;101160.28;;;7.82;82.15
52032;BME280;38044;45.148;39.604;2023-03-25T01:32:19;101124.00;;;7.64;82.10
52032;BME280;38044;45.148;39.604;2023-03-25T01:34:45;101248.75;;;8.40;81.91
52032;BME280;38044;45.148;39.604;2023-03-25T01:37:11;101126.72;;;7.69;81.83
52032;BME280;38044;45.148;39.604;2023-03-25T01:39:37;101275.69;;;8.65;81.88
52032;BME280;38044;45.148;39.604;2023-03-25T01:42:03;101234.31;;;8.46;81.88
52032;BME280;38044;45.148;39.604;2023-03-25T01:46:59;101244.09;;;8.72;81.90
52032;BME280;38044;45.148;39.604;2023-03-25T01:49:39;101119.97;;;7.99;81.47
52032;BME280;38044;45.148;39.604;2023-03-25T01:52:17;101234.38;;;8.61;81.31
52032;BME280;38044;45.148;39.604;2023-03-25T01:54:46;101280.03;;;8.76;81.57
52032;BME280;38044;45.148;39.604;2023-03-25T01:57:18;101270.94;;;8.77;81.58
52032;BME280;38044;45.148;39.604;2023-03-25T01:59:45;101238.91;;;8.55;81.63
52032;BME280;38044;45.148;39.604;2023-03-25T02:02:13;101110.16;;;7.72;81.46
52032;BME280;38044;45.148;39.604;2023-03-25T02:04:52;101125.53;;;7.92;82.07
52032;BME280;38044;45.148;39.604;2023-03-25T02:07:34;101253.50;;;8.80;81.94
52032;BME280;38044;45.148;39.604;2023-03-25T02:10:02;101232.75;;;8.55;82.05
52032;BME280;38044;45.148;39.604;2023-03-25T02:12:29;101121.47;;;7.84;82.13
52032;BME280;38044;45.148;39.604;2023-03-25T02:14:56;101230.06;;;8.55;82.29
52032;BME280;38044;45.148;39.604;2023-03-25T02:23:19;101274.78;;;8.97;81.94
52032;BME280;38044;45.148;39.604;2023-03-25T02:28:57;101279.34;;;9.01;81.85
52032;BME280;38044;45.148;39.604;2023-03-25T02:37:21;101274.81;;;9.07;81.50
52032;BME280;38044;45.148;39.604;2023-03-25T02:42:25;101260.72;;;8.74;81.76
52032;BME280;38044;45.148;39.604;2023-03-25T02:45:16;101240.88;;;8.70;82.10
52032;BME280;38044;45.148;39.604;2023-03-25T02:47:50;101261.31;;;8.82;82.08
52032;BME280;38044;45.148;39.604;2023-03-25T02:50:29;101274.72;;;8.82;82.28
52032;BME280;38044;45.148;39.604;2023-03-25T02:53:00;101280.59;;;8.84;82.11
52032;BME280;38044;45.148;39.604;2023-03-25T02:55:28;101137.31;;;7.91;82.04
52032;BME280;38044;45.148;39.604;2023-03-25T02:57:57;101290.81;;;8.87;82.63
52032;BME280;38044;45.148;39.604;2023-03-25T03:00:27;101272.56;;;8.84;82.82
52032;BME280;38044;45.148;39.604;2023-03-25T03:02:56;101256.75;;;8.82;82.59
52032;BME280;38044;45.148;39.604;2023-03-25T03:05:31;101279.06;;;9.03;82.47
52032;BME280;38044;45.148;39.604;2023-03-25T03:08:24;101293.31;;;9.09;82.34
52032;BME280;38044;45.148;39.604;2023-03-25T03:11:15;101144.13;;;8.14;82.63
52032;BME280;38044;45.148;39.604;2023-03-25T03:16:32;101251.06;;;8.68;82.87
52032;BME280;38044;45.148;39.604;2023-03-25T03:19:20;101294.06;;;8.94;83.25
52032;BME280;38044;45.148;39.604;2023-03-25T03:27:44;101296.59;;;8.63;83.44
52032;BME280;38044;45.148;39.604;2023-03-25T03:30:31;101291.09;;;8.43;84.08
52032;BME280;38044;45.148;39.604;2023-03-25T03:33:18;101282.97;;;8.32;84.54
52032;BME280;38044;45.148;39.604;2023-03-25T03:35:48;101307.78;;;8.50;84.46
52032;BME280;38044;45.148;39.604;2023-03-25T03:38:18;101190.44;;;7.72;83.98
52032;BME280;38044;45.148;39.604;2023-03-25T03:40:50;101285.06;;;8.25;83.92
52032;BME280;38044;45.148;39.604;2023-03-25T03:43:34;101155.63;;;7.67;83.83
52032;BME280;38044;45.148;39.604;2023-03-25T03:46:19;101285.81;;;8.53;83.79
52032;BME280;38044;45.148;39.604;2023-03-25T03:48:51;101299.31;;;8.68;83.28
52032;BME280;38044;45.148;39.604;2023-03-25T03:51:40;101313.81;;;8.77;83.41
52032;BME280;38044;45.148;39.604;2023-03-25T03:54:15;101312.22;;;8.76;83.17
52032;BME280;38044;45.148;39.604;2023-03-25T03:56:51;101266.34;;;8.68;82.87
52032;BME280;38044;45.148;39.604;2023-03-25T04:01:58;101286.03;;;8.94;82.34
52032;BME280;38044;45.148;39.604;2023-03-25T04:04:24;101178.19;;;8.19;82.13
52032;BME280;38044;45.148;39.604;2023-03-25T04:07:07;101266.16;;;8.85;82.98
52032;BME280;38044;45.148;39.604;2023-03-25T04:09:59;101284.16;;;8.99;83.19
52032;BME280;38044;45.148;39.604;2023-03-25T04:12:37;101279.28;;;8.86;83.33
52032;BME280;38044;45.148;39.604;2023-03-25T04:15:06;101247.78;;;8.61;82.87
52032;BME280;38044;45.148;39.604;2023-03-25T04:17:32;101288.69;;;8.94;82.80
52032;BME280;38044;45.148;39.604;2023-03-25T04:19:58;101290.88;;;9.02;82.78
52032;BME280;38044;45.148;39.604;2023-03-25T04:22:24;101290.66;;;9.14;82.73
52032;BME280;38044;45.148;39.604;2023-03-25T04:24:50;101294.72;;;9.27;82.48
52032;BME280;38044;45.148;39.604;2023-03-25T04:27:20;101309.78;;;9.43;81.75
52032;BME280;38044;45.148;39.604;2023-03-25T04:29:49;101297.19;;;9.48;81.37
52032;BME280;38044;45.148;39.604;2023-03-25T04:32:16;101320.56;;;9.63;80.70
52032;BME280;38044;45.148;39.604;2023-03-25T04:34:42;101319.50;;;9.69;80.32
52032;BME280;38044;45.148;39.604;2023-03-25T04:37:08;101317.38;;;9.82;80.14
52032;BME280;38044;45.148;39.604;2023-03-25T04:39:34;101283.78;;;9.69;79.68
52032;BME280;38044;45.148;39.604;2023-03-25T04:42:00;101293.22;;;9.82;79.40
52032;BME280;38044;45.148;39.604;2023-03-25T04:44:26;101328.13;;;10.18;79.05
52032;BME280;38044;45.148;39.604;2023-03-25T04:46:53;101322.75;;;10.12;78.63
52032;BME280;38044;45.148;39.604;2023-03-25T04:49:23;101315.50;;;10.08;78.75
52032;BME280;38044;45.148;39.604;2023-03-25T04:51:50;101316.84;;;10.15;78.85
52032;BME280;38044;45.148;39.604;2023-03-25T04:54:18;101333.50;;;10.23;78.52
52032;BME280;38044;45.148;39.604;2023-03-25T04:56:44;101333.25;;;10.40;78.78
52032;BME280;38044;45.148;39.604;2023-03-25T04:59:12;101281.13;;;10.15;77.95
52032;BME280;38044;45.148;39.604;2023-03-25T05:01:39;101323.03;;;10.57;77.80
52032;BME280;38044;45.148;39.604;2023-03-25T05:04:08;101340.50;;;10.65;77.32
52032;BME280;38044;45.148;39.604;2023-03-25T05:06:51;101296.94;;;10.57;77.18
52032;BME280;38044;45.148;39.604;2023-03-25T05:09:20;101300.72;;;10.51;76.87
52032;BME280;38044;45.148;39.604;2023-03-25T05:11:50;101332.38;;;10.70;77.54
52032;BME280;38044;45.148;39.604;2023-03-25T05:14:18;101350.91;;;10.87;77.43
52032;BME280;38044;45.148;39.604;2023-03-25T05:16:45;101338.78;;;10.94;76.90
52032;BME280;38044;45.148;39.604;2023-03-25T05:19:11;101350.09;;;10.91;76.57
52032;BME280;38044;45.148;39.604;2023-03-25T05:21:38;101297.66;;;10.78;76.76
52032;BME280;38044;45.148;39.604;2023-03-25T05:24:07;101341.97;;;11.07;76.65
52032;BME280;38044;45.148;39.604;2023-03-25T05:26:37;101203.50;;;10.13;76.71
52032;BME280;38044;45.148;39.604;2023-03-25T05:29:11;101313.00;;;10.88;77.40
52032;BME280;38044;45.148;39.604;2023-03-25T05:31:41;101194.88;;;10.06;77.55
52032;BME280;38044;45.148;39.604;2023-03-25T05:34:09;101209.66;;;10.09;77.47
52032;BME280;38044;45.148;39.604;2023-03-25T05:36:35;101300.72;;;10.56;77.74
52032;BME280;38044;45.148;39.604;2023-03-25T05:39:01;101359.50;;;10.94;78.12
52032;BME280;38044;45.148;39.604;2023-03-25T05:41:29;101339.88;;;10.88;77.79
52032;BME280;38044;45.148;39.604;2023-03-25T05:43:59;101218.22;;;10.21;77.50
52032;BME280;38044;45.148;39.604;2023-03-25T05:46:26;101339.78;;;11.19;77.89
52032;BME280;38044;45.148;39.604;2023-03-25T05:48:53;101351.50;;;11.43;77.40
52032;BME280;38044;45.148;39.604;2023-03-25T05:51:20;101347.69;;;11.55;76.30
52032;BME280;38044;45.148;39.604;2023-03-25T05:53:47;101346.06;;;11.54;75.97
52032;BME280;38044;45.148;39.604;2023-03-25T05:56:17;101190.81;;;10.45;76.14
52032;BME280;38044;45.148;39.604;2023-03-25T05:58:48;101212.47;;;10.74;76.14
52032;BME280;38044;45.148;39.604;2023-03-25T06:01:15;101350.91;;;11.57;75.98
52032;BME280;38044;45.148;39.604;2023-03-25T06:03:43;101360.56;;;11.63;76.05
52032;BME280;38044;45.148;39.604;2023-03-25T06:06:13;101204.88;;;10.81;75.51
52032;BME280;38044;45.148;39.604;2023-03-25T06:08:43;101350.19;;;11.90;75.83
52032;BME280;38044;45.148;39.604;2023-03-25T06:11:09;101325.75;;;11.71;74.75
52032;BME280;38044;45.148;39.604;2023-03-25T06:13:38;101356.09;;;11.87;75.30
52032;BME280;38044;45.148;39.604;2023-03-25T06:16:05;101350.66;;;11.98;75.09
52032;BME280;38044;45.148;39.604;2023-03-25T06:18:37;101318.53;;;12.06;74.73
52032;BME280;38044;45.148;39.604;2023-03-25T06:21:03;101229.63;;;11.67;73.83
52032;BME280;38044;45.148;39.604;2023-03-25T06:23:30;101325.94;;;12.54;72.94
52032;BME280;38044;45.148;39.604;2023-03-25T06:25:59;101322.38;;;12.82;72.41
52032;BME280;38044;45.148;39.604;2023-03-25T06:28:25;101348.88;;;13.23;72.13
52032;BME280;38044;45.148;39.604;2023-03-25T06:30:51;101341.44;;;13.39;71.24
52032;BME280;38044;45.148;39.604;2023-03-25T06:33:17;101339.00;;;13.38;70.62
52032;BME280;38044;45.148;39.604;2023-03-25T06:35:46;101297.28;;;13.06;70.58
52032;BME280;38044;45.148;39.604;2023-03-25T06:38:18;101298.59;;;13.08;70.95
52032;BME280;38044;45.148;39.604;2023-03-25T06:40:46;101321.78;;;13.34;70.32
52032;BME280;38044;45.148;39.604;2023-03-25T06:43:12;101299.94;;;13.30;69.88
52032;BME280;38044;45.148;39.604;2023-03-25T06:45:38;101297.84;;;13.46;69.87
52032;BME280;38044;45.148;39.604;2023-03-25T06:48:04;101203.09;;;12.85;69.30
52032;BME280;38044;45.148;39.604;2023-03-25T06:50:31;101299.75;;;13.45;68.61
52032;BME280;38044;45.148;39.604;2023-03-25T06:52:57;101202.63;;;12.78;68.83
52032;BME280;38044;45.148;39.604;2023-03-25T06:55:23;101289.53;;;13.42;68.02
52032;BME280;38044;45.148;39.604;2023-03-25T06:57:53;101336.31;;;13.94;67.69
52032;BME280;38044;45.148;39.604;2023-03-25T07:00:19;101295.84;;;13.70;67.46
52032;BME280;38044;45.148;39.604;2023-03-25T07:02:48;101314.94;;;14.12;66.90
52032;BME280;38044;45.148;39.604;2023-03-25T07:05:14;101275.19;;;14.12;66.00
52032;BME280;38044;45.148;39.604;2023-03-25T07:07:40;101334.47;;;14.55;65.58
52032;BME280;38044;45.148;39.604;2023-03-25T07:10:06;101335.78;;;14.58;65.22
52032;BME280;38044;45.148;39.604;2023-03-25T07:12:35;101324.50;;;14.83;65.50
52032;BME280;38044;45.148;39.604;2023-03-25T07:15:01;101320.06;;;14.87;64.85
52032;BME280;38044;45.148;39.604;2023-03-25T07:17:27;101313.22;;;15.18;64.49
52032;BME280;38044;45.148;39.604;2023-03-25T07:19:52;101305.31;;;15.71;63.22
52032;BME280;38044;45.148;39.604;2023-03-25T07:22:18;101304.72;;;16.68;60.48
52032;BME280;38044;45.148;39.604;2023-03-25T07:24:44;101186.31;;;16.98;57.95
52032;BME280;38044;45.148;39.604;2023-03-25T07:27:10;101270.84;;;19.07;55.40
52032;BME280;38044;45.148;39.604;2023-03-25T07:29:37;101298.25;;;20.53;52.93
52032;BME280;38044;45.148;39.604;2023-03-25T07:32:03;101188.75;;;20.09;51.25
52032;BME280;38044;45.148;39.604;2023-03-25T07:34:29;101280.66;;;21.27;49.23
52032;BME280;38044;45.148;39.604;2023-03-25T07:36:55;101167.59;;;21.07;48.25
52032;BME280;38044;45.148;39.604;2023-03-25T07:39:22;101286.59;;;22.45;47.05
52032;BME280;38044;45.148;39.604;2023-03-25T07:41:50;101276.09;;;23.53;45.66
52032;BME280;38044;45.148;39.604;2023-03-25T07:44:16;101280.88;;;22.66;45.46
52032;BME280;38044;45.148;39.604;2023-03-25T07:46:45;101294.84;;;23.12;45.74
52032;BME280;38044;45.148;39.604;2023-03-25T07:49:12;101210.00;;;23.62;44.64
52032;BME280;38044;45.148;39.604;2023-03-25T07:51:38;101205.84;;;24.14;43.63
52032;BME280;38044;45.148;39.604;2023-03-25T07:54:04;101246.94;;;24.83;43.07
52032;BME280;38044;45.148;39.604;2023-03-25T07:56:31;101269.25;;;25.35;42.02
52032;BME280;38044;45.148;39.604;2023-03-25T07:58:56;101211.53;;;25.38;41.53
52032;BME280;38044;45.148;39.604;2023-03-25T08:01:23;101265.47;;;26.25;40.23
52032;BME280;38044;45.148;39.604;2023-03-25T08:03:49;101248.81;;;25.70;39.41
52032;BME280;38044;45.148;39.604;2023-03-25T08:06:15;101263.13;;;25.82;40.36
52032;BME280;38044;45.148;39.604;2023-03-25T08:08:41;101223.81;;;25.86;40.60
52032;BME280;38044;45.148;39.604;2023-03-25T08:11:06;101158.50;;;25.86;40.67
52032;BME280;38044;45.148;39.604;2023-03-25T08:13:33;101228.97;;;25.87;38.56
52032;BME280;38044;45.148;39.604;2023-03-25T08:15:58;101245.97;;;26.00;39.02
52032;BME280;38044;45.148;39.604;2023-03-25T08:18:24;101152.41;;;25.25;39.71
52032;BME280;38044;45.148;39.604;2023-03-25T08:20:51;101198.69;;;25.91;39.84
52032;BME280;38044;45.148;39.604;2023-03-25T08:23:18;101175.81;;;25.46;39.10
52032;BME280;38044;45.148;39.604;2023-03-25T08:25:48;101208.22;;;24.16;41.23
52032;BME280;38044;45.148;39.604;2023-03-25T08:28:16;101226.56;;;23.07;42.58
52032;BME280;38044;45.148;39.604;2023-03-25T08:30:46;101100.16;;;21.87;44.52
52032;BME280;38044;45.148;39.604;2023-03-25T08:33:14;101186.31;;;21.77;45.43
52032;BME280;38044;45.148;39.604;2023-03-25T08:38:55;101184.34;;;20.16;49.30
52032;BME280;38044;45.148;39.604;2023-03-25T08:41:20;101179.19;;;19.78;50.02
52032;BME280;38044;45.148;39.604;2023-03-25T08:43:48;101163.84;;;19.40;51.03
52032;BME280;38044;45.148;39.604;2023-03-25T08:46:15;101195.13;;;20.25;49.86
52032;BME280;38044;45.148;39.604;2023-03-25T08:48:41;101070.50;;;19.80;48.81
52032;BME280;38044;45.148;39.604;2023-03-25T08:51:08;101173.06;;;20.30;48.88
52032;BME280;38044;45.148;39.604;2023-03-25T08:53:34;101158.47;;;19.77;49.60
52032;BME280;38044;45.148;39.604;2023-03-25T08:56:00;101090.34;;;19.10;50.52
52032;BME280;38044;45.148;39.604;2023-03-25T08:58:26;101174.94;;;19.68;50.16
52032;BME280;38044;45.148;39.604;2023-03-25T09:00:53;101151.22;;;19.81;50.85
52032;BME280;38044;45.148;39.604;2023-03-25T09:03:23;101052.13;;;19.31;50.31
52032;BME280;38044;45.148;39.604;2023-03-25T09:05:49;101184.78;;;20.06;50.60
52032;BME280;38044;45.148;39.604;2023-03-25T09:08:15;101167.75;;;19.64;50.93
52032;BME280;38044;45.148;39.604;2023-03-25T09:10:41;101163.31;;;19.26;51.86
52032;BME280;38044;45.148;39.604;2023-03-25T09:13:07;101144.94;;;18.81;52.86
52032;BME280;38044;45.148;39.604;2023-03-25T09:15:33;101156.38;;;18.65;53.64
52032;BME280;38044;45.148;39.604;2023-03-25T09:17:58;101162.22;;;18.55;53.50
52032;BME280;38044;45.148;39.604;2023-03-25T09:20:25;101153.22;;;18.63;54.24
52032;BME280;38044;45.148;39.604;2023-03-25T09:22:50;101120.00;;;18.49;53.69
52032;BME280;38044;45.148;39.604;2023-03-25T09:25:16;101015.88;;;17.89;53.66
52032;BME280;38044;45.148;39.604;2023-03-25T09:27:42;101154.50;;;18.87;53.30
52032;BME280;38044;45.148;39.604;2023-03-25T09:30:08;101116.69;;;18.64;54.65
52032;BME280;38044;45.148;39.604;2023-03-25T09:32:35;101120.66;;;18.67;54.42
52032;BME280;38044;45.148;39.604;2023-03-25T09:35:00;101057.41;;;18.19;55.02
52032;BME280;38044;45.148;39.604;2023-03-25T09:37:26;101056.59;;;17.98;55.17
52032;BME280;38044;45.148;39.604;2023-03-25T09:39:53;101123.47;;;17.99;56.81
52032;BME280;38044;45.148;39.604;2023-03-25T09:42:43;101121.44;;;17.87;57.76
52032;BME280;38044;45.148;39.604;2023-03-25T09:45:34;101136.63;;;17.88;57.93
52032;BME280;38044;45.148;39.604;2023-03-25T09:48:33;101125.66;;;17.67;58.41
52032;BME280;38044;45.148;39.604;2023-03-25T09:51:04;101030.72;;;16.98;58.47
52032;BME280;38044;45.148;39.604;2023-03-25T09:53:42;101018.59;;;16.60;58.95
52032;BME280;38044;45.148;39.604;2023-03-25T09:56:26;101141.09;;;17.28;59.79
52032;BME280;38044;45.148;39.604;2023-03-25T09:59:22;101143.28;;;17.52;59.48
52032;BME280;38044;45.148;39.604;2023-03-25T10:02:16;101143.41;;;17.56;59.37
52032;BME280;38044;45.148;39.604;2023-03-25T10:05:24;101137.00;;;17.69;59.49
52032;BME280;38044;45.148;39.604;2023-03-25T10:08:14;101136.59;;;17.41;59.09
52032;BME280;38044;45.148;39.604;2023-03-25T10:11:12;101069.84;;;16.97;58.92
52032;BME280;38044;45.148;39.604;2023-03-25T10:13:54;101137.53;;;17.37;59.75
52032;BME280;38044;45.148;39.604;2023-03-25T10:25:26;100958.88;;;17.63;57.28
52032;BME280;38044;45.148;39.604;2023-03-25T10:27:54;101085.88;;;18.52;56.63
52032;BME280;38044;45.148;39.604;2023-03-25T10:30:32;100967.50;;;17.95;56.38
52032;BME280;38044;45.148;39.604;2023-03-25T10:33:40;101075.44;;;18.54;56.54
52032;BME280;38044;45.148;39.604;2023-03-25T10:36:17;101095.34;;;18.45;56.76
52032;BME280;38044;45.148;39.604;2023-03-25T10:38:47;101046.69;;;18.23;57.22
52032;BME280;38044;45.148;39.604;2023-03-25T10:41:33;101060.91;;;18.29;56.72
52032;BME280;38044;45.148;39.604;2023-03-25T10:44:07;100946.66;;;17.48;56.48
52032;BME280;38044;45.148;39.604;2023-03-25T10:46:40;101065.09;;;18.26;57.89
52032;BME280;38044;45.148;39.604;2023-03-25T10:49:18;101062.50;;;18.30;57.54
52032;BME280;38044;45.148;39.604;2023-03-25T10:51:46;101007.75;;;17.81;57.97
52032;BME280;38044;45.148;39.604;2023-03-25T10:54:13;101050.88;;;18.20;57.81
52032;BME280;38044;45.148;39.604;2023-03-25T10:56:46;101047.56;;;18.36;57.71
52032;BME280;38044;45.148;39.604;2023-03-25T11:01:42;100914.63;;;17.84;56.57
52032;BME280;38044;45.148;39.604;2023-03-25T11:04:16;101025.44;;;18.79;57.00
52032;BME280;38044;45.148;39.604;2023-03-25T11:06:46;100908.41;;;18.04;57.30
52032;BME280;38044;45.148;39.604;2023-03-25T11:09:24;101039.47;;;19.02;56.96
52032;BME280;38044;45.148;39.604;2023-03-25T11:11:52;101016.47;;;18.79;56.79
52032;BME280;38044;45.148;39.604;2023-03-25T11:14:23;101052.88;;;19.07;56.52
52032;BME280;38044;45.148;39.604;2023-03-25T11:16:59;101046.56;;;19.16;56.21
52032;BME280;38044;45.148;39.604;2023-03-25T11:19:40;101069.34;;;19.11;56.13
52032;BME280;38044;45.148;39.604;2023-03-25T11:22:10;101061.06;;;19.07;55.89
52032;BME280;38044;45.148;39.604;2023-03-25T11:24:42;101055.78;;;19.23;56.02
52032;BME280;38044;45.148;39.604;2023-03-25T11:27:10;100916.50;;;18.46;55.93
52032;BME280;38044;45.148;39.604;2023-03-25T11:29:41;101047.16;;;19.46;55.76
52032;BME280;38044;45.148;39.604;2023-03-25T11:32:15;101038.09;;;19.54;55.11
52032;BME280;38044;45.148;39.604;2023-03-25T11:34:46;100928.22;;;19.04;54.61
52032;BME280;38044;45.148;39.604;2023-03-25T11:37:24;101040.94;;;19.94;54.07
52032;BME280;38044;45.148;39.604;2023-03-25T11:39:53;100994.59;;;19.82;54.59
52032;BME280;38044;45.148;39.604;2023-03-25T11:42:44;101030.75;;;20.44;54.03
52032;BME280;38044;45.148;39.604;2023-03-25T11:45:34;101037.44;;;20.46;54.36
52032;BME280;38044;45.148;39.604;2023-03-25T11:48:30;101026.81;;;20.69;52.81
52032;BME280;38044;45.148;39.604;2023-03-25T11:51:02;101029.00;;;20.64;53.45
52032;BME280;38044;45.148;39.604;2023-03-25T11:53:31;101011.47;;;20.65;53.14
52032;BME280;38044;45.148;39.604;2023-03-25T11:56:07;100882.81;;;19.98;52.89
52032;BME280;38044;45.148;39.604;2023-03-25T11:58:37;101013.69;;;20.75;53.83
52032;BME280;38044;45.148;39.604;2023-03-25T12:01:20;101001.66;;;20.92;53.83
52032;BME280;38044;45.148;39.604;2023-03-25T12:03:47;100985.66;;;20.50;54.29
52032;BME280;38044;45.148;39.604;2023-03-25T12:06:18;100909.28;;;20.10;53.70
52032;BME280;38044;45.148;39.604;2023-03-25T12:09:10;101008.00;;;20.96;52.67
52032;BME280;38044;45.148;39.604;2023-03-25T12:11:42;100977.25;;;20.15;52.41
52032;BME280;38044;45.148;39.604;2023-03-25T12:14:20;100891.41;;;19.59;53.60
52032;BME280;38044;45.148;39.604;2023-03-25T12:20:20;100980.84;;;20.31;54.28
52032;BME280;38044;45.148;39.604;2023-03-25T12:25:24;100975.59;;;19.86;54.38
52032;BME280;38044;45.148;39.604;2023-03-25T12:28:17;100976.78;;;19.72;55.04
52032;BME280;38044;45.148;39.604;2023-03-25T12:31:04;100976.22;;;19.67;54.17
52032;BME280;38044;45.148;39.604;2023-03-25T12:39:14;100973.34;;;19.39;55.41
52032;BME280;38044;45.148;39.604;2023-03-25T12:44:45;100955.72;;;19.11;54.59
52032;BME280;38044;45.148;39.604;2023-03-25T12:50:22;100918.81;;;18.56;56.16
52032;BME280;38044;45.148;39.604;2023-03-25T13:09:16;100920.97;;;18.30;58.26
52032;BME280;38044;45.148;39.604;2023-03-25T13:11:53;100920.44;;;18.36;58.37
52032;BME280;38044;45.148;39.604;2023-03-25T13:14:35;100801.53;;;17.62;57.42
52032;BME280;38044;45.148;39.604;2023-03-25T13:17:09;100783.25;;;17.50;56.55
52032;BME280;38044;45.148;39.604;2023-03-25T13:19:37;100897.63;;;18.08;56.44
52032;BME280;38044;45.148;39.604;2023-03-25T13:22:17;100826.78;;;17.62;57.21
52032;BME280;38044;45.148;39.604;2023-03-25T13:24:54;100883.19;;;17.95;56.89
52032;BME280;38044;45.148;39.604;2023-03-25T13:27:22;100870.34;;;17.83;56.91
52032;BME280;38044;45.148;39.604;2023-03-25T13:29:55;100920.06;;;18.05;56.74
52032;BME280;38044;45.148;39.604;2023-03-25T13:32:31;100884.13;;;17.78;56.91
52032;BME280;38044;45.148;39.604;2023-03-25T13:35:06;100781.31;;;17.08;57.04
52032;BME280;38044;45.148;39.604;2023-03-25T13:38:19;100809.16;;;17.26;57.34
52032;BME280;38044;45.148;39.604;2023-03-25T13:45:22;100918.47;;;17.83;58.50
52032;BME280;38044;45.148;39.604;2023-03-25T13:48:09;100919.28;;;17.83;58.17
52032;BME280;38044;45.148;39.604;2023-03-25T13:50:37;100887.53;;;17.66;57.93
52032;BME280;38044;45.148;39.604;2023-03-25T14:04:07;100875.66;;;17.50;58.55
52032;BME280;38044;45.148;39.604;2023-03-25T14:12:35;100862.44;;;17.40;59.35
52032;BME280;38044;45.148;39.604;2023-03-25T14:15:05;100839.75;;;17.15;58.80
52032;BME280;38044;45.148;39.604;2023-03-25T14:17:34;100861.25;;;17.28;59.33
52032;BME280;38044;45.148;39.604;2023-03-25T14:20:03;100861.88;;;17.25;59.29
52032;BME280;38044;45.148;39.604;2023-03-25T14:22:36;100809.53;;;16.86;59.19
52032;BME280;38044;45.148;39.604;2023-03-25T14:25:04;100862.16;;;17.11;59.31
52032;BME280;38044;45.148;39.604;2023-03-25T14:27:33;100701.16;;;16.05;59.47
52032;BME280;38044;45.148;39.604;2023-03-25T14:30:03;100754.34;;;16.35;59.88
52032;BME280;38044;45.148;39.604;2023-03-25T14:32:35;100717.41;;;16.05;59.95
52032;BME280;38044;45.148;39.604;2023-03-25T14:43:36;100832.25;;;16.73;60.98
52032;BME280;38044;45.148;39.604;2023-03-25T14:46:21;100834.97;;;16.73;60.57
52032;BME280;38044;45.148;39.604;2023-03-25T14:54:02;100833.25;;;16.60;61.33
52032;BME280;38044;45.148;39.604;2023-03-25T14:56:36;100833.91;;;16.57;62.02
52032;BME280;38044;45.148;39.604;2023-03-25T14:59:13;100813.88;;;16.32;62.42